Time;durP1;ratioP1;P1;durP2;ratioP2;P2;SDS_P1;SDS_P2;PMS_P1;PMS_P2;Temp;Humidity;BMP_temperature;BMP_pressure;BME280_temperature;BME280_humidity;BME280_pressure;Samples;Min_cycle;Max_cycle;Signal;HPM_P1;HPM_P2
2024/02/16 00:00:31;;;;;;;1.08;0.90;;;12.90;87.20;;;;;;5031471;28;20128;-65
2024/02/16 00:02:57;;;;;;;1.10;0.77;;;12.90;87.20;;;;;;5032653;28;20040;-65
2024/02/16 00:05:23;;;;;;;1.23;0.77;;;12.80;87.20;;;;;;5032170;28;20416;-65
2024/02/16 00:07:49;;;;;;;0.60;0.60;;;12.80;87.70;;;;;;5031029;28;20034;-66
2024/02/16 00:10:18;;;;;;;0.88;0.60;;;12.80;87.20;;;;;;5026462;28;20401;-67
2024/02/16 00:12:44;;;;;;;3.50;1.15;;;12.80;87.40;;;;;;5030391;28;20034;-66
2024/02/16 00:15:10;;;;;;;0.70;0.70;;;12.70;87.30;;;;;;5029440;28;20033;-66
2024/02/16 00:17:37;;;;;;;2.60;1.02;;;12.80;87.30;;;;;;5032590;28;20040;-67
2024/02/16 00:20:03;;;;;;;0.70;0.50;;;12.70;87.30;;;;;;5031335;28;20040;-66
2024/02/16 00:22:29;;;;;;;2.10;1.02;;;12.70;87.40;;;;;;5028129;28;20041;-66
2024/02/16 00:24:55;;;;;;;1.27;0.57;;;12.70;87.40;;;;;;5029924;28;20029;-66
2024/02/16 00:27:21;;;;;;;2.58;1.17;;;12.70;87.40;;;;;;5029451;28;20032;-66
2024/02/16 00:29:47;;;;;;;1.35;0.80;;;12.70;87.30;;;;;;5031210;28;20029;-66
2024/02/16 00:32:15;;;;;;;1.10;0.73;;;12.70;87.40;;;;;;5037836;28;20039;-66
2024/02/16 00:34:41;;;;;;;1.42;0.70;;;12.60;87.30;;;;;;5034655;28;20046;-66
2024/02/16 00:37:11;;;;;;;1.45;1.02;;;12.60;87.30;;;;;;5034846;28;20102;-67
2024/02/16 00:39:40;;;;;;;1.17;1.08;;;12.60;87.30;;;;;;5034445;28;20563;-66
2024/02/16 00:42:07;;;;;;;3.65;1.08;;;12.60;87.40;;;;;;5030525;28;20033;-66
2024/02/16 00:44:33;;;;;;;2.17;0.73;;;12.60;87.30;;;;;;5029059;28;20029;-66
2024/02/16 00:46:59;;;;;;;1.42;0.85;;;12.60;87.30;;;;;;5029803;28;20022;-66
2024/02/16 00:49:24;;;;;;;1.25;1.05;;;12.50;87.30;;;;;;5029895;28;20044;-66
2024/02/16 00:51:50;;;;;;;2.45;1.00;;;12.50;87.30;;;;;;5030398;28;20026;-66
2024/02/16 00:54:17;;;;;;;1.80;1.08;;;12.50;87.30;;;;;;5029121;28;20036;-66
2024/02/16 00:56:43;;;;;;;3.45;1.50;;;12.50;87.40;;;;;;5033937;28;20029;-66
2024/02/16 00:59:09;;;;;;;0.50;0.50;;;12.50;87.30;;;;;;5032797;28;20029;-66
2024/02/16 01:01:36;;;;;;;0.80;0.80;;;12.50;87.30;;;;;;5030548;28;20051;-66
2024/02/16 01:04:03;;;;;;;1.02;0.82;;;12.40;87.30;;;;;;5029954;28;20029;-66
2024/02/16 01:06:29;;;;;;;0.52;0.52;;;12.40;87.90;;;;;;5028794;28;20029;-66
2024/02/16 01:08:56;;;;;;;2.70;0.88;;;12.40;87.30;;;;;;5027354;28;20124;-66
2024/02/16 01:11:22;;;;;;;1.13;1.02;;;12.40;87.20;;;;;;5004951;28;20026;-66
2024/02/16 01:13:48;;;;;;;0.93;0.90;;;12.40;87.20;;;;;;5029563;28;20543;-66
2024/02/16 01:16:17;;;;;;;2.38;0.90;;;12.40;87.30;;;;;;5029757;28;20033;-66
2024/02/16 01:18:44;;;;;;;0.80;0.70;;;12.40;87.50;;;;;;5028607;28;20029;-66
2024/02/16 01:21:11;;;;;;;0.50;0.50;;;12.40;87.30;;;;;;5029073;28;20124;-66
2024/02/16 01:23:37;;;;;;;0.70;0.70;;;12.50;87.30;;;;;;5035109;28;20033;-66
2024/02/16 01:26:04;;;;;;;1.60;1.45;;;12.50;87.30;;;;;;5030278;28;20046;-66
2024/02/16 01:28:30;;;;;;;0.73;0.50;;;12.50;87.30;;;;;;5025921;28;20151;-66
2024/02/16 01:30:56;;;;;;;0.63;0.57;;;12.50;87.10;;;;;;5029756;28;20500;-66
2024/02/16 01:33:22;;;;;;;1.10;0.77;;;12.50;87.10;;;;;;5029550;28;20030;-66
2024/02/16 01:35:48;;;;;;;1.77;0.70;;;12.50;87.10;;;;;;5030161;28;20154;-66
2024/02/16 01:38:14;;;;;;;1.77;0.70;;;12.50;87.20;;;;;;5032228;28;20033;-66
2024/02/16 01:40:40;;;;;;;0.47;0.47;;;12.50;87.20;;;;;;5030255;28;20425;-66
2024/02/16 01:43:06;;;;;;;1.73;0.98;;;12.50;87.20;;;;;;5029836;28;20029;-66
2024/02/16 01:45:32;;;;;;;0.95;0.52;;;12.50;87.20;;;;;;5031677;28;20041;-66
2024/02/16 01:47:59;;;;;;;2.05;0.50;;;12.50;87.20;;;;;;5023139;28;20037;-66
2024/02/16 01:50:25;;;;;;;1.00;0.68;;;12.50;87.20;;;;;;5031812;28;20099;-66
2024/02/16 01:52:52;;;;;;;0.82;0.50;;;12.50;87.10;;;;;;5031808;28;20400;-66
2024/02/16 01:55:21;;;;;;;0.75;0.70;;;12.50;87.20;;;;;;5029654;28;20484;-66
2024/02/16 01:57:48;;;;;;;0.85;0.43;;;12.50;87.10;;;;;;5029729;28;20457;-65
2024/02/16 02:00:17;;;;;;;1.30;0.93;;;12.50;87.20;;;;;;5027070;28;20029;-65
2024/02/16 02:02:47;;;;;;;1.27;0.77;;;12.60;87.20;;;;;;5057370;28;20044;-65
2024/02/16 02:05:14;;;;;;;0.80;0.60;;;12.60;87.10;;;;;;5030448;28;20026;-65
2024/02/16 02:07:41;;;;;;;0.60;0.57;;;12.50;87.10;;;;;;5029136;28;20116;-64
2024/02/16 02:10:08;;;;;;;1.42;1.02;;;12.50;87.00;;;;;;5023770;28;20111;-65
2024/02/16 02:12:34;;;;;;;17.25;1.10;;;12.50;87.00;;;;;;5022329;28;20049;-65
2024/02/16 02:15:00;;;;;;;1.08;0.50;;;12.50;87.00;;;;;;5059732;28;20030;-65
2024/02/16 02:17:26;;;;;;;1.92;1.00;;;12.50;87.00;;;;;;5031707;28;20437;-64
2024/02/16 02:19:52;;;;;;;0.70;0.60;;;12.50;86.80;;;;;;5026574;28;20045;-65
2024/02/16 02:22:20;;;;;;;0.55;0.52;;;12.50;86.80;;;;;;5028445;28;20458;-65
2024/02/16 02:24:46;;;;;;;1.27;0.88;;;12.50;87.00;;;;;;5028926;28;20099;-66
2024/02/16 02:27:13;;;;;;;0.50;0.50;;;12.40;87.10;;;;;;5028479;28;20487;-65
2024/02/16 02:29:40;;;;;;;2.38;0.88;;;12.50;87.10;;;;;;5030064;28;20404;-65
2024/02/16 02:32:07;;;;;;;1.55;0.80;;;12.50;87.00;;;;;;5030013;28;20033;-66
2024/02/16 02:34:33;;;;;;;1.05;0.75;;;12.50;87.50;;;;;;5025971;28;20179;-65
2024/02/16 02:36:59;;;;;;;0.95;0.70;;;12.50;86.90;;;;;;5027711;28;20029;-66
2024/02/16 02:39:25;;;;;;;0.98;0.85;;;12.60;87.00;;;;;;5027761;28;20381;-66
2024/02/16 02:41:51;;;;;;;1.92;0.80;;;12.70;86.90;;;;;;5028638;28;20030;-66
2024/02/16 02:44:21;;;;;;;0.73;0.63;;;12.70;86.70;;;;;;5030411;28;20032;-66
2024/02/16 02:46:47;;;;;;;1.30;1.05;;;12.70;86.60;;;;;;5032181;28;20043;-66
2024/02/16 02:49:13;;;;;;;1.30;0.90;;;12.80;86.60;;;;;;5025217;28;20033;-66
2024/02/16 02:51:39;;;;;;;1.13;0.90;;;12.80;86.60;;;;;;5029076;28;20034;-66
2024/02/16 02:54:05;;;;;;;2.17;1.08;;;12.80;86.50;;;;;;5028612;28;20026;-66
2024/02/16 02:56:31;;;;;;;1.17;0.65;;;12.80;86.40;;;;;;5025669;28;20053;-66
2024/02/16 02:58:58;;;;;;;0.93;0.93;;;12.80;86.30;;;;;;5025111;28;20532;-65
2024/02/16 03:01:24;;;;;;;0.70;0.60;;;12.90;86.20;;;;;;5027652;28;20036;-65
2024/02/16 03:03:50;;;;;;;0.73;0.52;;;12.90;86.20;;;;;;5028489;28;20021;-65
2024/02/16 03:06:19;;;;;;;2.97;0.85;;;12.90;86.20;;;;;;5028544;28;20474;-65
2024/02/16 03:08:45;;;;;;;0.93;0.82;;;12.90;86.10;;;;;;5030451;28;20040;-65
2024/02/16 03:11:12;;;;;;;1.23;0.90;;;12.90;86.10;;;;;;5030525;28;20033;-65
2024/02/16 03:13:38;;;;;;;1.20;0.63;;;12.90;86.00;;;;;;5029345;28;20041;-65
2024/02/16 03:16:04;;;;;;;1.02;0.75;;;12.90;86.00;;;;;;5019595;28;20037;-65
2024/02/16 03:18:31;;;;;;;0.55;0.50;;;12.90;86.10;;;;;;5025681;28;20033;-64
2024/02/16 03:20:58;;;;;;;0.82;0.70;;;12.90;86.20;;;;;;5026944;28;20034;-64
2024/02/16 03:23:24;;;;;;;1.05;0.77;;;12.90;86.00;;;;;;5032054;28;20033;-65
2024/02/16 03:25:50;;;;;;;0.90;0.60;;;12.90;86.00;;;;;;5033708;28;20120;-65
2024/02/16 03:28:16;;;;;;;1.20;0.80;;;12.90;86.00;;;;;;5033296;28;20436;-65
2024/02/16 03:30:44;;;;;;;1.27;0.85;;;12.90;86.00;;;;;;5038764;28;20385;-65
2024/02/16 03:33:10;;;;;;;1.10;0.50;;;12.90;86.10;;;;;;5033043;28;20025;-65
2024/02/16 03:35:37;;;;;;;1.60;0.70;;;12.90;86.10;;;;;;5032075;28;20095;-65
2024/02/16 03:38:03;;;;;;;2.00;0.70;;;12.90;86.00;;;;;;5033455;28;20039;-64
2024/02/16 03:40:30;;;;;;;3.90;0.85;;;12.90;86.00;;;;;;5031561;28;20038;-64
2024/02/16 03:42:56;;;;;;;3.03;0.82;;;12.90;86.00;;;;;;5028380;28;20037;-64
2024/02/16 03:45:23;;;;;;;1.75;0.98;;;12.90;86.00;;;;;;5031518;28;20057;-64
2024/02/16 03:47:49;;;;;;;0.98;0.73;;;12.80;86.00;;;;;;5034316;28;20022;-65
2024/02/16 03:50:15;;;;;;;1.92;0.95;;;12.80;86.10;;;;;;5036070;28;20032;-64
2024/02/16 03:52:41;;;;;;;1.73;1.17;;;12.80;86.20;;;;;;5030851;28;20029;-64
2024/02/16 03:55:08;;;;;;;4.35;1.20;;;12.70;86.30;;;;;;5031852;28;20037;-65
2024/02/16 03:57:34;;;;;;;0.73;0.60;;;12.80;86.30;;;;;;5031513;28;20033;-65
2024/02/16 04:00:00;;;;;;;0.68;0.68;;;12.80;86.30;;;;;;5033869;28;20044;-65
2024/02/16 04:02:26;;;;;;;0.57;0.50;;;12.70;86.20;;;;;;5033421;28;20032;-65
2024/02/16 04:04:52;;;;;;;1.58;1.00;;;12.70;86.20;;;;;;5025691;28;20037;-64
2024/02/16 04:07:18;;;;;;;1.88;0.73;;;12.80;86.20;;;;;;5037161;28;20030;-66
2024/02/16 04:09:43;;;;;;;0.75;0.47;;;12.80;86.10;;;;;;5031198;28;20037;-66
2024/02/16 04:12:10;;;;;;;0.38;0.38;;;12.80;86.00;;;;;;5034326;28;20037;-66
2024/02/16 04:14:36;;;;;;;1.05;0.65;;;12.80;85.90;;;;;;5034972;28;21098;-66
2024/02/16 04:17:02;;;;;;;1.17;0.70;;;12.80;85.80;;;;;;5029827;28;20083;-66
2024/02/16 04:19:29;;;;;;;0.50;0.50;;;12.80;85.90;;;;;;5030831;28;20037;-66
2024/02/16 04:21:55;;;;;;;0.73;0.73;;;12.80;86.00;;;;;;5030395;28;20032;-66
2024/02/16 04:24:21;;;;;;;1.77;0.98;;;12.80;85.90;;;;;;5034021;28;20433;-66
2024/02/16 04:26:47;;;;;;;0.68;0.68;;;12.80;85.90;;;;;;5028294;28;20034;-66
2024/02/16 04:29:14;;;;;;;0.88;0.63;;;12.80;85.90;;;;;;5032502;28;20068;-66
2024/02/16 04:31:42;;;;;;;1.73;1.05;;;12.70;85.90;;;;;;5031845;28;20477;-66
2024/02/16 04:34:08;;;;;;;1.67;1.00;;;12.70;86.00;;;;;;5031220;28;20038;-66
2024/02/16 04:36:35;;;;;;;1.35;0.70;;;12.70;86.10;;;;;;5015423;28;20084;-66
2024/02/16 04:39:01;;;;;;;0.88;0.85;;;12.60;86.00;;;;;;5027946;28;20037;-66
2024/02/16 04:41:27;;;;;;;0.68;0.47;;;12.60;86.00;;;;;;5030602;28;20024;-66
2024/02/16 04:43:53;;;;;;;0.93;0.80;;;12.50;86.00;;;;;;5029714;28;20029;-66
2024/02/16 04:46:19;;;;;;;2.25;1.58;;;12.50;86.10;;;;;;5031639;28;20026;-66
2024/02/16 04:48:45;;;;;;;1.40;0.80;;;12.40;86.10;;;;;;5032059;28;20563;-66
2024/02/16 04:51:12;;;;;;;3.17;0.68;;;12.40;86.80;;;;;;5038263;28;20025;-66
2024/02/16 04:53:38;;;;;;;0.40;0.40;;;12.30;86.20;;;;;;5030068;28;20037;-65
2024/02/16 04:56:04;;;;;;;4.00;0.70;;;12.30;86.20;;;;;;5030755;28;20036;-65
2024/02/16 04:58:31;;;;;;;1.52;0.70;;;12.20;86.20;;;;;;5036006;28;20033;-65
2024/02/16 05:00:57;;;;;;;0.77;0.70;;;12.20;86.40;;;;;;5026375;28;20377;-66
2024/02/16 05:03:24;;;;;;;0.65;0.65;;;12.20;86.30;;;;;;5011636;28;20030;-65
2024/02/16 05:05:50;;;;;;;1.73;0.70;;;12.20;86.40;;;;;;5056138;28;20029;-65
2024/02/16 05:08:16;;;;;;;9.00;1.02;;;12.20;86.30;;;;;;5029412;28;20033;-65
2024/02/16 05:10:42;;;;;;;0.90;0.90;;;12.20;86.30;;;;;;5028783;28;20060;-65
2024/02/16 05:13:08;;;;;;;3.50;0.90;;;12.20;86.30;;;;;;5028998;28;20038;-66
2024/02/16 05:15:34;;;;;;;0.75;0.70;;;12.10;86.20;;;;;;5030219;28;20087;-65
2024/02/16 05:18:00;;;;;;;1.30;0.80;;;12.10;86.20;;;;;;5029608;28;20021;-65
2024/02/16 05:20:26;;;;;;;0.85;0.70;;;12.20;86.30;;;;;;5024692;28;20037;-67
2024/02/16 05:22:52;;;;;;;1.77;0.55;;;12.10;86.30;;;;;;5029003;28;20137;-66
2024/02/16 05:25:19;;;;;;;1.58;0.80;;;12.10;86.20;;;;;;5027275;28;20381;-66
2024/02/16 05:27:47;;;;;;;1.25;0.50;;;12.10;86.20;;;;;;5028538;28;20021;-66
2024/02/16 05:30:15;;;;;;;1.33;0.75;;;12.10;86.20;;;;;;5029177;28;20030;-66
2024/02/16 05:32:44;;;;;;;1.05;0.63;;;12.00;86.20;;;;;;5027427;28;20029;-66
2024/02/16 05:35:17;;;;;;;2.13;0.63;;;12.00;86.20;;;;;;5029552;28;20056;-66
2024/02/16 05:37:57;;;;;;;2.00;1.25;;;12.00;86.20;;;;;;5018101;28;20041;-66
2024/02/16 05:40:30;;;;;;;1.40;1.05;;;12.00;86.30;;;;;;5021239;28;20056;-66
2024/02/16 05:43:00;;;;;;;1.20;1.10;;;12.00;86.40;;;;;;5023185;28;20026;-66
2024/02/16 05:45:26;;;;;;;0.55;0.55;;;11.90;86.40;;;;;;5024235;28;20029;-67
2024/02/16 05:47:52;;;;;;;0.63;0.57;;;11.90;86.30;;;;;;5025027;28;20029;-66
2024/02/16 05:50:22;;;;;;;0.90;0.70;;;11.90;86.30;;;;;;5026743;28;20072;-66
2024/02/16 05:52:49;;;;;;;0.60;0.60;;;11.90;86.30;;;;;;5029706;28;20511;-66
2024/02/16 05:55:15;;;;;;;0.85;0.63;;;11.90;86.30;;;;;;5026273;28;20048;-66
2024/02/16 05:57:41;;;;;;;0.93;0.65;;;11.90;86.30;;;;;;5029623;28;20033;-66
2024/02/16 06:00:13;;;;;;;1.35;0.73;;;11.90;86.50;;;;;;5029251;28;20388;-66
2024/02/16 06:02:38;;;;;;;0.45;0.45;;;11.90;86.30;;;;;;5032523;28;20021;-67
2024/02/16 06:05:05;;;;;;;1.35;0.70;;;11.90;86.90;;;;;;5028965;28;20036;-67
2024/02/16 06:07:31;;;;;;;1.67;0.77;;;11.90;86.50;;;;;;5029731;28;20127;-67
2024/02/16 06:09:57;;;;;;;2.22;1.05;;;11.90;86.40;;;;;;5028884;28;20147;-67
2024/02/16 06:12:23;;;;;;;1.77;0.68;;;11.90;86.40;;;;;;5027943;28;20425;-67
2024/02/16 06:14:49;;;;;;;0.85;0.77;;;11.90;86.40;;;;;;5027171;28;20033;-67
2024/02/16 06:17:16;;;;;;;1.55;1.23;;;11.90;86.40;;;;;;5034701;28;20065;-64
2024/02/16 06:19:42;;;;;;;0.80;0.68;;;11.80;86.40;;;;;;5029352;28;20022;-65
2024/02/16 06:22:10;;;;;;;1.63;0.80;;;11.80;86.50;;;;;;5069384;28;20129;-65
2024/02/16 06:24:36;;;;;;;1.17;0.75;;;11.80;86.60;;;;;;5025022;28;20033;-65
2024/02/16 06:27:03;;;;;;;1.05;0.80;;;11.80;86.60;;;;;;5027802;28;20282;-65
2024/02/16 06:29:30;;;;;;;0.68;0.55;;;11.80;86.60;;;;;;5029356;28;20027;-65
2024/02/16 06:31:56;;;;;;;0.88;0.85;;;11.80;86.60;;;;;;5028168;28;20049;-65
2024/02/16 06:34:21;;;;;;;0.95;0.80;;;11.70;86.70;;;;;;5011248;28;20060;-64
2024/02/16 06:36:47;;;;;;;1.92;1.15;;;11.80;86.70;;;;;;5029861;28;20103;-66
2024/02/16 06:39:16;;;;;;;1.00;0.85;;;11.80;86.70;;;;;;5027783;28;20409;-67
2024/02/16 06:41:43;;;;;;;1.85;1.13;;;11.80;86.70;;;;;;5028268;28;20104;-67
2024/02/16 06:44:09;;;;;;;1.02;0.82;;;11.80;86.70;;;;;;5024872;28;20026;-67
2024/02/16 06:46:35;;;;;;;0.77;0.45;;;11.80;86.80;;;;;;5028919;28;20029;-67
2024/02/16 06:49:01;;;;;;;3.15;0.80;;;11.80;86.70;;;;;;5030004;28;20031;-66
2024/02/16 06:51:28;;;;;;;2.28;1.08;;;11.80;86.80;;;;;;5027239;28;20029;-67
2024/02/16 06:53:54;;;;;;;2.05;1.25;;;11.80;87.00;;;;;;5031605;28;20497;-66
2024/02/16 06:56:20;;;;;;;2.13;1.33;;;11.80;87.00;;;;;;5029592;28;20377;-66
2024/02/16 06:58:46;;;;;;;1.08;0.60;;;11.90;87.20;;;;;;5028125;28;20052;-65
2024/02/16 07:01:15;;;;;;;0.73;0.73;;;12.00;87.00;;;;;;5028658;28;20437;-65
2024/02/16 07:03:41;;;;;;;1.45;1.00;;;12.10;86.90;;;;;;5028309;28;20032;-64
2024/02/16 07:06:09;;;;;;;1.00;0.60;;;12.10;87.00;;;;;;5028811;28;20052;-65
2024/02/16 07:08:38;;;;;;;4.03;0.90;;;12.20;86.90;;;;;;5023548;28;20030;-65
2024/02/16 07:11:05;;;;;;;1.23;1.13;;;12.30;86.90;;;;;;5029508;28;20049;-65
2024/02/16 07:13:34;;;;;;;1.77;1.13;;;12.50;86.90;;;;;;5024449;28;20032;-65
2024/02/16 07:16:00;;;;;;;2.40;1.13;;;12.60;86.70;;;;;;5029527;28;20025;-65
2024/02/16 07:18:26;;;;;;;1.38;0.90;;;12.80;86.50;;;;;;5027896;28;20022;-65
2024/02/16 07:20:51;;;;;;;3.47;1.83;;;12.90;86.40;;;;;;5029226;28;20044;-65
2024/02/16 07:23:17;;;;;;;3.38;1.27;;;13.00;86.30;;;;;;5027016;28;20432;-65
2024/02/16 07:25:43;;;;;;;2.47;0.93;;;13.20;86.10;;;;;;5027264;28;20021;-65
2024/02/16 07:28:09;;;;;;;1.95;0.60;;;13.20;85.90;;;;;;5027386;28;20079;-65
2024/02/16 07:30:38;;;;;;;1.67;1.00;;;13.30;85.80;;;;;;5028067;28;20473;-64
2024/02/16 07:33:07;;;;;;;1.08;0.80;;;13.40;85.60;;;;;;5022577;28;20057;-65
2024/02/16 07:35:33;;;;;;;1.58;1.30;;;13.50;85.40;;;;;;5029096;28;20124;-65
2024/02/16 07:37:58;;;;;;;2.30;1.42;;;13.60;85.40;;;;;;5025432;28;20075;-65
2024/02/16 07:40:24;;;;;;;2.00;1.50;;;13.60;85.30;;;;;;5029392;28;20041;-66
2024/02/16 07:42:50;;;;;;;2.85;1.20;;;13.60;85.30;;;;;;5026016;28;20074;-66
2024/02/16 07:45:15;;;;;;;1.55;0.90;;;13.70;85.20;;;;;;5036280;28;20025;-66
2024/02/16 07:47:41;;;;;;;2.17;0.90;;;13.70;85.20;;;;;;5027646;28;20033;-66
2024/02/16 07:50:07;;;;;;;2.70;1.33;;;13.70;85.10;;;;;;5025209;28;20052;-66
2024/02/16 07:52:33;;;;;;;2.58;1.20;;;13.80;85.00;;;;;;5029047;28;20033;-66
2024/02/16 07:54:59;;;;;;;2.55;1.20;;;13.80;85.00;;;;;;5027926;28;20036;-66
2024/02/16 07:57:25;;;;;;;3.13;0.60;;;13.80;85.00;;;;;;5027680;28;20477;-66
2024/02/16 07:59:50;;;;;;;5.63;1.48;;;13.80;84.90;;;;;;5026592;28;20041;-66
2024/02/16 08:02:17;;;;;;;1.45;1.02;;;13.90;84.80;;;;;;5026127;28;20029;-66
2024/02/16 08:04:47;;;;;;;1.10;0.93;;;14.00;84.90;;;;;;5028435;28;20079;-66
2024/02/16 08:07:13;;;;;;;1.45;1.17;;;14.00;84.60;;;;;;5028004;28;20033;-65
2024/02/16 08:09:39;;;;;;;0.90;0.70;;;14.00;84.50;;;;;;5026573;28;20037;-70
2024/02/16 08:12:06;;;;;;;1.35;1.08;;;14.10;84.50;;;;;;5026837;28;20033;-65
2024/02/16 08:14:35;;;;;;;1.45;1.23;;;14.00;84.30;;;;;;5031634;28;20503;-63
2024/02/16 08:17:01;;;;;;;6.55;1.48;;;14.10;84.30;;;;;;5031914;28;20065;-64
2024/02/16 08:19:35;;;;;;;1.95;1.55;;;14.10;84.30;;;;;;5030346;28;20072;-64
2024/02/16 08:22:03;;;;;;;3.60;1.65;;;14.10;84.30;;;;;;5031599;28;20005;-66
2024/02/16 08:24:29;;;;;;;1.25;1.05;;;14.20;84.30;;;;;;5033197;28;20112;-68
2024/02/16 08:26:56;;;;;;;1.75;1.10;;;14.20;84.20;;;;;;5031997;28;20022;-70
2024/02/16 08:29:21;;;;;;;1.35;1.15;;;14.20;84.10;;;;;;5033560;28;20485;-70
2024/02/16 08:31:51;;;;;;;3.40;1.50;;;14.30;84.10;;;;;;5031993;28;20040;-67
2024/02/16 08:34:16;;;;;;;2.95;1.08;;;14.30;84.10;;;;;;5031064;28;20552;-72
2024/02/16 08:36:49;;;;;;;3.75;1.13;;;14.30;84.00;;;;;;5029995;28;20053;-68
2024/02/16 08:39:16;;;;;;;2.78;1.45;;;14.40;83.80;;;;;;5036659;28;20041;-71
2024/02/16 08:41:43;;;;;;;1.23;1.05;;;14.40;83.70;;;;;;5026458;28;20017;-69
2024/02/16 08:44:10;;;;;;;2.08;1.17;;;14.40;83.60;;;;;;5061463;28;20108;-69
2024/02/16 08:46:39;;;;;;;1.58;1.00;;;14.50;83.50;;;;;;5030863;28;20370;-67
2024/02/16 08:49:05;;;;;;;1.75;1.25;;;14.50;83.50;;;;;;5027876;28;20029;-67
2024/02/16 08:51:34;;;;;;;1.90;1.15;;;14.60;83.40;;;;;;5030278;28;20037;-68
2024/02/16 08:54:00;;;;;;;2.35;1.13;;;14.60;83.40;;;;;;5026930;28;20076;-67
2024/02/16 08:56:28;;;;;;;2.13;1.42;;;14.60;83.30;;;;;;5026324;28;20104;-68
2024/02/16 08:58:54;;;;;;;3.15;1.38;;;14.70;83.40;;;;;;5029356;28;20044;-68
2024/02/16 09:01:33;;;;;;;2.20;1.45;;;14.70;83.30;;;;;;5029996;28;20480;-68
2024/02/16 09:03:59;;;;;;;2.45;1.45;;;14.80;83.30;;;;;;5029486;28;20025;-68
2024/02/16 09:06:24;;;;;;;2.00;1.10;;;14.80;83.20;;;;;;5028860;28;20021;-68
2024/02/16 09:08:50;;;;;;;1.90;1.27;;;14.80;83.20;;;;;;5030643;28;20041;-68
2024/02/16 09:11:17;;;;;;;2.90;1.08;;;14.90;83.70;;;;;;5029160;28;20162;-68
2024/02/16 09:13:43;;;;;;;1.92;1.23;;;14.90;83.20;;;;;;5028071;28;20044;-68
2024/02/16 09:16:09;;;;;;;1.73;1.25;;;14.90;83.10;;;;;;5030441;28;20693;-68
2024/02/16 09:18:37;;;;;;;1.80;1.30;;;14.90;83.10;;;;;;5030561;28;20033;-68
2024/02/16 09:21:03;;;;;;;4.60;1.80;;;14.90;83.10;;;;;;5058534;28;20018;-68
2024/02/16 09:23:28;;;;;;;3.60;1.00;;;15.00;83.10;;;;;;5023751;28;20033;-68
2024/02/16 09:25:54;;;;;;;2.38;1.30;;;15.00;83.10;;;;;;5053213;28;20064;-68
2024/02/16 09:28:20;;;;;;;1.90;1.48;;;15.00;83.10;;;;;;5020234;28;20392;-68
2024/02/16 09:30:47;;;;;;;1.95;1.15;;;15.00;83.10;;;;;;5008005;28;20034;-68
2024/02/16 09:33:13;;;;;;;3.30;1.67;;;15.00;83.10;;;;;;5023775;28;20060;-68
2024/02/16 09:35:40;;;;;;;2.90;1.58;;;15.00;82.90;;;;;;5028865;28;20073;-70
2024/02/16 09:38:06;;;;;;;3.72;2.00;;;15.00;83.00;;;;;;5031894;28;20025;-66
2024/02/16 09:40:31;;;;;;;2.38;1.63;;;15.10;82.90;;;;;;5025807;28;20137;-66
2024/02/16 09:42:58;;;;;;;3.33;1.73;;;15.10;82.90;;;;;;5030814;28;20036;-66
2024/02/16 09:45:25;;;;;;;2.78;1.55;;;15.10;82.80;;;;;;5035143;28;20400;-66
2024/02/16 09:47:52;;;;;;;3.60;1.50;;;15.10;83.00;;;;;;5030124;28;20025;-66
2024/02/16 09:50:18;;;;;;;2.47;1.50;;;15.10;83.00;;;;;;5023297;28;20123;-66
2024/02/16 09:52:48;;;;;;;3.65;1.85;;;15.10;83.00;;;;;;5019294;28;20029;-66
2024/02/16 09:55:14;;;;;;;2.28;1.50;;;15.10;83.00;;;;;;5027951;28;20037;-66
2024/02/16 09:57:40;;;;;;;3.25;2.00;;;15.00;83.00;;;;;;5015554;28;20603;-65
2024/02/16 10:00:07;;;;;;;2.75;1.73;;;15.10;83.10;;;;;;5022995;28;20154;-66
2024/02/16 10:02:48;;;;;;;2.28;1.42;;;15.10;83.10;;;;;;5035803;28;20029;-66
2024/02/16 10:05:15;;;;;;;2.15;1.60;;;15.10;83.10;;;;;;5025922;28;20104;-66
2024/02/16 10:07:43;;;;;;;2.13;1.35;;;15.10;83.20;;;;;;5024446;28;20030;-66
2024/02/16 10:10:27;;;;;;;2.83;1.50;;;15.10;83.20;;;;;;5028970;28;20031;-66
2024/02/16 10:13:04;;;;;;;3.15;1.83;;;15.20;83.20;;;;;;5013434;28;20148;-66
2024/02/16 10:15:30;;;;;;;4.78;1.95;;;15.20;83.30;;;;;;5025495;28;20038;-66
2024/02/16 10:18:04;;;;;;;2.15;1.48;;;15.10;83.10;;;;;;5021301;28;20037;-66
2024/02/16 10:20:30;;;;;;;2.35;1.63;;;15.20;83.30;;;;;;5013993;28;20113;-66
2024/02/16 10:23:03;;;;;;;4.60;2.08;;;15.20;83.30;;;;;;5018118;28;20037;-66
2024/02/16 10:25:29;;;;;;;2.30;1.50;;;15.30;83.30;;;;;;5018425;28;20068;-66
2024/02/16 10:27:57;;;;;;;2.25;1.38;;;15.30;83.20;;;;;;5052653;28;20548;-66
2024/02/16 10:30:28;;;;;;;3.50;1.95;;;15.30;83.20;;;;;;5013919;28;20026;-66
2024/02/16 10:32:54;;;;;;;3.45;2.08;;;15.30;83.20;;;;;;5050605;28;20028;-66
2024/02/16 10:35:24;;;;;;;4.50;1.80;;;15.30;83.20;;;;;;5025919;28;20119;-66
2024/02/16 10:37:50;;;;;;;5.47;2.35;;;15.30;83.30;;;;;;5024302;28;20508;-68
2024/02/16 10:40:19;;;;;;;4.40;1.80;;;15.30;83.30;;;;;;5030897;28;20045;-68
2024/02/16 10:42:50;;;;;;;2.55;1.77;;;15.30;83.40;;;;;;5028733;28;20451;-68
2024/02/16 10:45:17;;;;;;;2.23;1.50;;;15.30;83.50;;;;;;5032005;28;20037;-68
2024/02/16 10:47:43;;;;;;;5.05;1.95;;;15.20;83.50;;;;;;5020801;28;20805;-68
2024/02/16 10:50:09;;;;;;;1.25;1.08;;;15.20;83.50;;;;;;5023688;28;20112;-68
2024/02/16 10:52:37;;;;;;;2.47;1.63;;;15.20;83.60;;;;;;5027757;28;20057;-68
2024/02/16 10:55:05;;;;;;;1.30;1.17;;;15.20;83.70;;;;;;5031478;28;20096;-68
2024/02/16 10:57:33;;;;;;;3.80;2.22;;;15.20;83.80;;;;;;5028129;28;20540;-68
2024/02/16 10:59:59;;;;;;;7.88;1.88;;;15.10;83.80;;;;;;5030975;28;20035;-68
2024/02/16 11:02:25;;;;;;;3.35;1.75;;;15.10;84.10;;;;;;5030747;28;20021;-68
2024/02/16 11:04:53;;;;;;;4.07;2.10;;;15.10;84.30;;;;;;5030503;28;20339;-68
2024/02/16 11:07:19;;;;;;;3.58;1.85;;;15.10;84.40;;;;;;5029022;28;20037;-68
2024/02/16 11:09:46;;;;;;;4.63;2.00;;;15.10;84.50;;;;;;5025032;28;20041;-68
2024/02/16 11:12:15;;;;;;;4.50;2.40;;;15.10;84.60;;;;;;5022463;28;20025;-68
2024/02/16 11:14:46;;;;;;;5.10;2.50;;;15.00;84.70;;;;;;5023007;28;20048;-68
2024/02/16 11:17:19;;;;;;;2.67;2.15;;;15.00;85.10;;;;;;5029380;28;20022;-68
2024/02/16 11:19:46;;;;;;;3.08;1.83;;;15.00;85.30;;;;;;5027467;28;20037;-68
2024/02/16 11:22:17;;;;;;;6.22;1.98;;;15.00;85.60;;;;;;5025724;28;20037;-68
2024/02/16 11:24:47;;;;;;;2.22;1.60;;;14.90;85.80;;;;;;5028103;28;20024;-65
2024/02/16 11:27:23;;;;;;;2.63;2.03;;;14.90;86.00;;;;;;5026803;28;20025;-65
2024/02/16 11:29:49;;;;;;;2.10;1.75;;;14.80;86.30;;;;;;5023055;28;20033;-65
2024/02/16 11:32:15;;;;;;;2.72;1.60;;;14.80;86.40;;;;;;5029769;28;20025;-65
2024/02/16 11:34:40;;;;;;;2.45;1.20;;;14.80;86.50;;;;;;5030311;28;20099;-65
2024/02/16 11:37:07;;;;;;;3.97;2.40;;;14.80;86.60;;;;;;5021987;28;20500;-65
2024/02/16 11:39:37;;;;;;;3.03;1.80;;;14.70;86.80;;;;;;5027328;28;20037;-64
2024/02/16 11:42:11;;;;;;;5.47;2.70;;;14.70;86.90;;;;;;5032362;28;20087;-65
2024/02/16 11:44:39;;;;;;;2.50;2.20;;;14.70;87.60;;;;;;5030263;28;20903;-64
2024/02/16 11:47:14;;;;;;;4.85;2.60;;;14.60;88.30;;;;;;5028907;28;20022;-64
2024/02/16 11:49:40;;;;;;;5.70;3.17;;;14.50;88.60;;;;;;5031755;28;20033;-65
2024/02/16 11:52:07;;;;;;;3.92;3.38;;;14.40;88.80;;;;;;5029165;28;20029;-64
2024/02/16 11:54:33;;;;;;;4.78;2.33;;;14.40;89.30;;;;;;5029443;28;20030;-65
2024/02/16 11:56:59;;;;;;;3.40;2.35;;;14.30;89.30;;;;;;5033671;28;20036;-64
2024/02/16 11:59:25;;;;;;;2.38;2.00;;;14.40;89.30;;;;;;5015629;28;20034;-65
2024/02/16 12:01:52;;;;;;;3.55;2.58;;;14.40;89.20;;;;;;5026481;28;20520;-65
2024/02/16 12:04:31;;;;;;;3.42;2.58;;;14.40;89.30;;;;;;5025475;28;20033;-64
2024/02/16 12:06:59;;;;;;;5.32;2.85;;;14.40;89.40;;;;;;5030598;28;20029;-65
2024/02/16 12:09:26;;;;;;;5.00;2.13;;;14.30;89.60;;;;;;5027630;28;20048;-65
2024/02/16 12:11:55;;;;;;;3.17;2.10;;;14.30;90.10;;;;;;5032269;28;20417;-67
2024/02/16 12:14:24;;;;;;;3.33;2.95;;;14.30;89.80;;;;;;5031823;28;20136;-65
2024/02/16 12:16:51;;;;;;;4.63;2.88;;;14.30;89.90;;;;;;5030743;28;20480;-65
2024/02/16 12:19:22;;;;;;;4.53;2.95;;;14.30;90.00;;;;;;5032399;28;20099;-65
2024/02/16 12:21:52;;;;;;;3.28;2.70;;;14.30;90.10;;;;;;5021108;28;20065;-65
2024/02/16 12:24:21;;;;;;;5.07;2.25;;;14.30;90.10;;;;;;5031509;28;20061;-66
2024/02/16 12:26:47;;;;;;;3.47;2.15;;;14.30;90.10;;;;;;5033438;28;20033;-65
2024/02/16 12:29:13;;;;;;;2.90;2.00;;;14.30;90.00;;;;;;5028033;28;20473;-65
2024/02/16 12:31:41;;;;;;;3.00;2.08;;;14.40;90.00;;;;;;5030655;28;20192;-65
2024/02/16 12:34:07;;;;;;;5.05;2.70;;;14.40;89.90;;;;;;5031012;28;20037;-64
2024/02/16 12:36:40;;;;;;;3.70;2.33;;;14.40;90.00;;;;;;5029528;28;20111;-65
2024/02/16 12:39:06;;;;;;;6.88;2.80;;;14.40;90.00;;;;;;5031241;28;20033;-65
2024/02/16 12:41:33;;;;;;;6.38;2.83;;;14.30;90.30;;;;;;5028361;28;20048;-65
2024/02/16 12:43:59;;;;;;;3.00;2.42;;;14.20;90.20;;;;;;5033162;28;20546;-65
2024/02/16 12:46:25;;;;;;;4.70;1.92;;;14.20;90.20;;;;;;5029982;28;20037;-64